sensor_id;sensor_type;location;lat;lon;timestamp;temperature;humidity
216;HTU21D;70668;48.81286795;9.14184224;2024-03-25T00:00:25;5.68;95.91
216;HTU21D;70668;48.81286795;9.14184224;2024-03-25T00:02:51;5.67;96.74
216;HTU21D;70668;48.81286795;9.14184224;2024-03-25T00:05:17;5.60;96.46
216;HTU21D;70668;48.81286795;9.14184224;2024-03-25T00:07:46;5.60;95.49
216;HTU21D;70668;48.81286795;9.14184224;2024-03-25T00:10:12;5.72;95.68
216;HTU21D;70668;48.81286795;9.14184224;2024-03-25T00:12:38;5.70;96.16
216;HTU21D;70668;48.81286795;9.14184224;2024-03-25T00:15:05;5.75;97.16
216;HTU21D;70668;48.81286795;9.14184224;2024-03-25T00:17:31;5.69;94.78
216;HTU21D;70668;48.81286795;9.14184224;2024-03-25T00:19:57;5.70;96.01
216;HTU21D;70668;48.81286795;9.14184224;2024-03-25T00:22:23;5.60;95.46
216;HTU21D;70668;48.81286795;9.14184224;2024-03-25T00:24:52;5.72;94.78
216;HTU21D;70668;48.81286795;9.14184224;2024-03-25T00:27:18;5.59;95.26
216;HTU21D;70668;48.81286795;9.14184224;2024-03-25T00:29:44;5.55;95.52
216;HTU21D;70668;48.81286795;9.14184224;2024-03-25T00:32:10;5.56;95.49
216;HTU21D;70668;48.81286795;9.14184224;2024-03-25T00:34:37;5.51;97.45
216;HTU21D;70668;48.81286795;9.14184224;2024-03-25T00:37:03;5.48;96.29
216;HTU21D;70668;48.81286795;9.14184224;2024-03-25T00:39:30;5.46;95.96
216;HTU21D;70668;48.81286795;9.14184224;2024-03-25T00:41:59;5.48;95.33
216;HTU21D;70668;48.81286795;9.14184224;2024-03-25T00:44:25;5.42;96.49
216;HTU21D;70668;48.81286795;9.14184224;2024-03-25T00:46:52;5.33;96.97
216;HTU21D;70668;48.81286795;9.14184224;2024-03-25T00:49:18;5.24;96.76
216;HTU21D;70668;48.81286795;9.14184224;2024-03-25T00:51:44;5.22;96.68
216;HTU21D;70668;48.81286795;9.14184224;2024-03-25T00:54:10;5.19;98.08
216;HTU21D;70668;48.81286795;9.14184224;2024-03-25T00:56:35;5.10;97.28
216;HTU21D;70668;48.81286795;9.14184224;2024-03-25T00:59:04;5.11;97.51
216;HTU21D;70668;48.81286795;9.14184224;2024-03-25T01:01:31;5.01;99.40
216;HTU21D;70668;48.81286795;9.14184224;2024-03-25T01:03:57;4.98;99.16
216;HTU21D;70668;48.81286795;9.14184224;2024-03-25T01:06:23;4.88;100.01
216;HTU21D;70668;48.81286795;9.14184224;2024-03-25T01:08:49;4.81;99.47
216;HTU21D;70668;48.81286795;9.14184224;2024-03-25T01:11:15;4.81;100.61
216;HTU21D;70668;48.81286795;9.14184224;2024-03-25T01:13:41;4.68;100.48
216;HTU21D;70668;48.81286795;9.14184224;2024-03-25T01:16:10;4.67;101.02
216;HTU21D;70668;48.81286795;9.14184224;2024-03-25T01:18:36;4.62;101.07
216;HTU21D;70668;48.81286795;9.14184224;2024-03-25T01:21:02;4.68;101.19
216;HTU21D;70668;48.81286795;9.14184224;2024-03-25T01:23:28;4.71;101.92
216;HTU21D;70668;48.81286795;9.14184224;2024-03-25T01:25:54;4.65;101.02
216;HTU21D;70668;48.81286795;9.14184224;2024-03-25T01:28:20;4.76;101.82
216;HTU21D;70668;48.81286795;9.14184224;2024-03-25T01:30:46;4.72;100.48
216;HTU21D;70668;48.81286795;9.14184224;2024-03-25T01:33:15;4.65;100.64
216;HTU21D;70668;48.81286795;9.14184224;2024-03-25T01:35:41;4.66;102.74
216;HTU21D;70668;48.81286795;9.14184224;2024-03-25T01:38:07;4.47;103.50
216;HTU21D;70668;48.81286795;9.14184224;2024-03-25T01:40:33;4.79;101.19
216;HTU21D;70668;48.81286795;9.14184224;2024-03-25T01:43:01;4.68;102.10
216;HTU21D;70668;48.81286795;9.14184224;2024-03-25T01:45:29;4.41;102.12
216;HTU21D;70668;48.81286795;9.14184224;2024-03-25T01:47:56;4.46;101.32
216;HTU21D;70668;48.81286795;9.14184224;2024-03-25T01:50:25;4.54;102.22
216;HTU21D;70668;48.81286795;9.14184224;2024-03-25T01:52:51;4.64;102.89
216;HTU21D;70668;48.81286795;9.14184224;2024-03-25T01:55:21;4.71;100.85
216;HTU21D;70668;48.81286795;9.14184224;2024-03-25T01:57:47;4.62;100.72
216;HTU21D;70668;48.81286795;9.14184224;2024-03-25T02:00:14;4.54;101.44
216;HTU21D;70668;48.81286795;9.14184224;2024-03-25T02:02:50;4.68;100.75
216;HTU21D;70668;48.81286795;9.14184224;2024-03-25T02:05:17;4.91;99.20
216;HTU21D;70668;48.81286795;9.14184224;2024-03-25T02:07:46;4.75;100.35
216;HTU21D;70668;48.81286795;9.14184224;2024-03-25T02:10:14;4.76;100.82
216;HTU21D;70668;48.81286795;9.14184224;2024-03-25T02:12:40;4.81;101.58
216;HTU21D;70668;48.81286795;9.14184224;2024-03-25T02:15:08;4.77;102.15
216;HTU21D;70668;48.81286795;9.14184224;2024-03-25T02:17:34;4.92;102.24
216;HTU21D;70668;48.81286795;9.14184224;2024-03-25T02:20:00;4.88;100.77
216;HTU21D;70668;48.81286795;9.14184224;2024-03-25T02:22:26;4.74;102.13
216;HTU21D;70668;48.81286795;9.14184224;2024-03-25T02:24:56;4.83;103.25
216;HTU21D;70668;48.81286795;9.14184224;2024-03-25T02:27:26;5.07;101.64
216;HTU21D;70668;48.81286795;9.14184224;2024-03-25T02:29:54;4.96;99.49
216;HTU21D;70668;48.81286795;9.14184224;2024-03-25T02:32:19;4.82;101.41
216;HTU21D;70668;48.81286795;9.14184224;2024-03-25T02:34:50;4.74;101.00
216;HTU21D;70668;48.81286795;9.14184224;2024-03-25T02:37:16;4.83;102.42
216;HTU21D;70668;48.81286795;9.14184224;2024-03-25T02:39:42;4.98;100.32
216;HTU21D;70668;48.81286795;9.14184224;2024-03-25T02:42:09;4.79;101.96
216;HTU21D;70668;48.81286795;9.14184224;2024-03-25T02:44:38;4.98;101.79
216;HTU21D;70668;48.81286795;9.14184224;2024-03-25T02:47:04;4.91;102.11
216;HTU21D;70668;48.81286795;9.14184224;2024-03-25T02:49:30;4.81;102.25
216;HTU21D;70668;48.81286795;9.14184224;2024-03-25T02:51:56;5.04;102.08
216;HTU21D;70668;48.81286795;9.14184224;2024-03-25T02:54:22;4.87;102.91
216;HTU21D;70668;48.81286795;9.14184224;2024-03-25T02:56:48;5.01;102.99
216;HTU21D;70668;48.81286795;9.14184224;2024-03-25T02:59:14;4.93;101.72
216;HTU21D;70668;48.81286795;9.14184224;2024-03-25T03:01:42;4.75;102.75
216;HTU21D;70668;48.81286795;9.14184224;2024-03-25T03:04:09;4.81;102.31
216;HTU21D;70668;48.81286795;9.14184224;2024-03-25T03:06:34;5.02;101.98
216;HTU21D;70668;48.81286795;9.14184224;2024-03-25T03:09:00;4.90;103.44
216;HTU21D;70668;48.81286795;9.14184224;2024-03-25T03:11:26;5.01;102.33
216;HTU21D;70668;48.81286795;9.14184224;2024-03-25T03:13:52;4.94;102.60
216;HTU21D;70668;48.81286795;9.14184224;2024-03-25T03:16:18;5.05;101.89
216;HTU21D;70668;48.81286795;9.14184224;2024-03-25T03:18:47;5.04;102.75
216;HTU21D;70668;48.81286795;9.14184224;2024-03-25T03:21:13;5.15;101.58
216;HTU21D;70668;48.81286795;9.14184224;2024-03-25T03:23:39;5.22;101.64
216;HTU21D;70668;48.81286795;9.14184224;2024-03-25T03:26:05;5.04;103.03
216;HTU21D;70668;48.81286795;9.14184224;2024-03-25T03:28:31;4.94;102.99
216;HTU21D;70668;48.81286795;9.14184224;2024-03-25T03:30:57;4.78;103.80
216;HTU21D;70668;48.81286795;9.14184224;2024-03-25T03:33:23;4.73;104.14
216;HTU21D;70668;48.81286795;9.14184224;2024-03-25T03:35:52;4.78;104.92
216;HTU21D;70668;48.81286795;9.14184224;2024-03-25T03:38:17;4.76;103.85
216;HTU21D;70668;48.81286795;9.14184224;2024-03-25T03:40:44;4.46;104.37
216;HTU21D;70668;48.81286795;9.14184224;2024-03-25T03:43:10;4.53;105.17
216;HTU21D;70668;48.81286795;9.14184224;2024-03-25T03:45:36;4.50;105.37
216;HTU21D;70668;48.81286795;9.14184224;2024-03-25T03:48:03;4.50;104.95
216;HTU21D;70668;48.81286795;9.14184224;2024-03-25T03:50:29;4.42;105.57
216;HTU21D;70668;48.81286795;9.14184224;2024-03-25T03:52:57;4.47;105.40
216;HTU21D;70668;48.81286795;9.14184224;2024-03-25T03:55:23;4.50;105.19
216;HTU21D;70668;48.81286795;9.14184224;2024-03-25T03:57:49;4.62;105.05
216;HTU21D;70668;48.81286795;9.14184224;2024-03-25T04:00:16;4.44;106.03
216;HTU21D;70668;48.81286795;9.14184224;2024-03-25T04:02:42;4.60;104.68
216;HTU21D;70668;48.81286795;9.14184224;2024-03-25T04:05:08;4.36;106.05
216;HTU21D;70668;48.81286795;9.14184224;2024-03-25T04:07:34;4.23;106.00
216;HTU21D;70668;48.81286795;9.14184224;2024-03-25T04:10:03;4.23;106.04
216;HTU21D;70668;48.81286795;9.14184224;2024-03-25T04:12:29;4.13;106.41
216;HTU21D;70668;48.81286795;9.14184224;2024-03-25T04:14:55;4.16;106.44
216;HTU21D;70668;48.81286795;9.14184224;2024-03-25T04:17:21;4.05;106.44
216;HTU21D;70668;48.81286795;9.14184224;2024-03-25T04:19:49;4.24;107.01
216;HTU21D;70668;48.81286795;9.14184224;2024-03-25T04:22:15;4.19;106.40
216;HTU21D;70668;48.81286795;9.14184224;2024-03-25T04:24:42;4.45;105.69
216;HTU21D;70668;48.81286795;9.14184224;2024-03-25T04:27:10;4.21;106.28
216;HTU21D;70668;48.81286795;9.14184224;2024-03-25T04:29:36;4.42;104.69
216;HTU21D;70668;48.81286795;9.14184224;2024-03-25T04:32:02;4.14;105.53
216;HTU21D;70668;48.81286795;9.14184224;2024-03-25T04:34:29;4.43;104.07
216;HTU21D;70668;48.81286795;9.14184224;2024-03-25T04:36:56;4.51;103.37
216;HTU21D;70668;48.81286795;9.14184224;2024-03-25T04:39:22;4.67;101.06
216;HTU21D;70668;48.81286795;9.14184224;2024-03-25T04:41:48;4.66;101.28
216;HTU21D;70668;48.81286795;9.14184224;2024-03-25T04:44:16;4.74;101.57
216;HTU21D;70668;48.81286795;9.14184224;2024-03-25T04:46:42;4.72;100.58
216;HTU21D;70668;48.81286795;9.14184224;2024-03-25T04:49:08;4.79;98.65
216;HTU21D;70668;48.81286795;9.14184224;2024-03-25T04:51:34;4.86;99.81
216;HTU21D;70668;48.81286795;9.14184224;2024-03-25T04:54:00;4.91;97.56
216;HTU21D;70668;48.81286795;9.14184224;2024-03-25T04:56:26;4.97;97.93
216;HTU21D;70668;48.81286795;9.14184224;2024-03-25T04:58:52;4.97;98.03
216;HTU21D;70668;48.81286795;9.14184224;2024-03-25T05:01:20;4.88;97.08
216;HTU21D;70668;48.81286795;9.14184224;2024-03-25T05:03:46;4.84;99.08
216;HTU21D;70668;48.81286795;9.14184224;2024-03-25T05:06:12;4.73;100.20
216;HTU21D;70668;48.81286795;9.14184224;2024-03-25T05:08:38;4.71;101.15
216;HTU21D;70668;48.81286795;9.14184224;2024-03-25T05:11:04;4.57;101.09
216;HTU21D;70668;48.81286795;9.14184224;2024-03-25T05:13:30;4.46;101.12
216;HTU21D;70668;48.81286795;9.14184224;2024-03-25T05:15:56;4.48;102.02
216;HTU21D;70668;48.81286795;9.14184224;2024-03-25T05:18:24;4.49;100.60
216;HTU21D;70668;48.81286795;9.14184224;2024-03-25T05:20:50;4.52;101.03
216;HTU21D;70668;48.81286795;9.14184224;2024-03-25T05:23:16;4.50;100.48
216;HTU21D;70668;48.81286795;9.14184224;2024-03-25T05:25:42;4.52;99.38
216;HTU21D;70668;48.81286795;9.14184224;2024-03-25T05:28:08;4.50;101.02
216;HTU21D;70668;48.81286795;9.14184224;2024-03-25T05:30:36;4.59;98.68
216;HTU21D;70668;48.81286795;9.14184224;2024-03-25T05:33:02;4.58;98.53
216;HTU21D;70668;48.81286795;9.14184224;2024-03-25T05:35:31;4.74;98.72
216;HTU21D;70668;48.81286795;9.14184224;2024-03-25T05:37:57;4.57;99.09
216;HTU21D;70668;48.81286795;9.14184224;2024-03-25T05:40:22;4.66;99.00
216;HTU21D;70668;48.81286795;9.14184224;2024-03-25T05:42:48;4.52;98.82
216;HTU21D;70668;48.81286795;9.14184224;2024-03-25T05:45:15;4.42;100.45
216;HTU21D;70668;48.81286795;9.14184224;2024-03-25T05:47:40;4.44;100.59
216;HTU21D;70668;48.81286795;9.14184224;2024-03-25T05:50:07;4.37;102.02
216;HTU21D;70668;48.81286795;9.14184224;2024-03-25T05:52:36;4.37;101.58
216;HTU21D;70668;48.81286795;9.14184224;2024-03-25T05:55:03;4.60;100.36
216;HTU21D;70668;48.81286795;9.14184224;2024-03-25T05:57:29;4.74;99.61
216;HTU21D;70668;48.81286795;9.14184224;2024-03-25T05:59:55;4.69;100.48
216;HTU21D;70668;48.81286795;9.14184224;2024-03-25T06:02:21;4.72;99.91
216;HTU21D;70668;48.81286795;9.14184224;2024-03-25T06:04:47;5.00;97.61
216;HTU21D;70668;48.81286795;9.14184224;2024-03-25T06:07:13;5.11;99.29
216;HTU21D;70668;48.81286795;9.14184224;2024-03-25T06:09:42;5.17;96.74
216;HTU21D;70668;48.81286795;9.14184224;2024-03-25T06:12:08;5.33;96.29
216;HTU21D;70668;48.81286795;9.14184224;2024-03-25T06:14:34;5.36;96.75
216;HTU21D;70668;48.81286795;9.14184224;2024-03-25T06:17:00;5.24;96.68
216;HTU21D;70668;48.81286795;9.14184224;2024-03-25T06:19:26;5.36;95.85
216;HTU21D;70668;48.81286795;9.14184224;2024-03-25T06:21:52;5.25;95.62
216;HTU21D;70668;48.81286795;9.14184224;2024-03-25T06:24:18;5.28;95.89
216;HTU21D;70668;48.81286795;9.14184224;2024-03-25T06:26:46;5.41;94.44
216;HTU21D;70668;48.81286795;9.14184224;2024-03-25T06:29:13;5.59;95.04
216;HTU21D;70668;48.81286795;9.14184224;2024-03-25T06:31:39;5.53;95.54
216;HTU21D;70668;48.81286795;9.14184224;2024-03-25T06:34:20;5.63;96.18
216;HTU21D;70668;48.81286795;9.14184224;2024-03-25T06:36:47;5.55;96.17
216;HTU21D;70668;48.81286795;9.14184224;2024-03-25T06:39:13;5.53;95.12
216;HTU21D;70668;48.81286795;9.14184224;2024-03-25T06:41:39;5.75;95.68
216;HTU21D;70668;48.81286795;9.14184224;2024-03-25T06:44:07;5.85;93.47
216;HTU21D;70668;48.81286795;9.14184224;2024-03-25T06:46:34;5.95;93.72
216;HTU21D;70668;48.81286795;9.14184224;2024-03-25T06:49:00;6.14;93.62
216;HTU21D;70668;48.81286795;9.14184224;2024-03-25T06:51:26;6.06;92.70
216;HTU21D;70668;48.81286795;9.14184224;2024-03-25T06:53:52;6.19;93.90
216;HTU21D;70668;48.81286795;9.14184224;2024-03-25T06:56:18;6.30;91.67
216;HTU21D;70668;48.81286795;9.14184224;2024-03-25T06:58:44;6.15;91.79
216;HTU21D;70668;48.81286795;9.14184224;2024-03-25T07:01:12;6.16;91.64
216;HTU21D;70668;48.81286795;9.14184224;2024-03-25T07:03:39;6.22;91.69
216;HTU21D;70668;48.81286795;9.14184224;2024-03-25T07:06:05;6.38;90.86
216;HTU21D;70668;48.81286795;9.14184224;2024-03-25T07:08:31;6.23;91.49
216;HTU21D;70668;48.81286795;9.14184224;2024-03-25T07:10:57;6.40;91.16
216;HTU21D;70668;48.81286795;9.14184224;2024-03-25T07:13:23;6.36;90.76
216;HTU21D;70668;48.81286795;9.14184224;2024-03-25T07:15:51;6.46;90.57
216;HTU21D;70668;48.81286795;9.14184224;2024-03-25T07:18:19;6.53;90.31
216;HTU21D;70668;48.81286795;9.14184224;2024-03-25T07:20:45;6.49;90.09
216;HTU21D;70668;48.81286795;9.14184224;2024-03-25T07:23:11;6.61;90.00
216;HTU21D;70668;48.81286795;9.14184224;2024-03-25T07:25:37;6.59;90.19
216;HTU21D;70668;48.81286795;9.14184224;2024-03-25T07:28:04;6.84;90.12
216;HTU21D;70668;48.81286795;9.14184224;2024-03-25T07:30:30;6.63;89.11
216;HTU21D;70668;48.81286795;9.14184224;2024-03-25T07:32:57;6.78;89.54
216;HTU21D;70668;48.81286795;9.14184224;2024-03-25T07:35:25;6.60;87.96
216;HTU21D;70668;48.81286795;9.14184224;2024-03-25T07:37:52;6.56;88.10
216;HTU21D;70668;48.81286795;9.14184224;2024-03-25T07:40:18;6.87;87.56
216;HTU21D;70668;48.81286795;9.14184224;2024-03-25T07:42:44;6.94;85.91
216;HTU21D;70668;48.81286795;9.14184224;2024-03-25T07:45:11;6.85;86.74
216;HTU21D;70668;48.81286795;9.14184224;2024-03-25T07:47:37;6.94;87.06
216;HTU21D;70668;48.81286795;9.14184224;2024-03-25T07:50:03;6.74;85.38
216;HTU21D;70668;48.81286795;9.14184224;2024-03-25T07:52:32;6.80;86.88
216;HTU21D;70668;48.81286795;9.14184224;2024-03-25T07:54:58;7.05;85.92
216;HTU21D;70668;48.81286795;9.14184224;2024-03-25T07:57:24;7.19;85.29
216;HTU21D;70668;48.81286795;9.14184224;2024-03-25T07:59:50;7.27;84.17
216;HTU21D;70668;48.81286795;9.14184224;2024-03-25T08:02:16;6.94;78.92
216;HTU21D;70668;48.81286795;9.14184224;2024-03-25T08:04:41;7.10;80.71
216;HTU21D;70668;48.81286795;9.14184224;2024-03-25T08:07:07;6.95;83.81
216;HTU21D;70668;48.81286795;9.14184224;2024-03-25T08:09:36;7.01;82.46
216;HTU21D;70668;48.81286795;9.14184224;2024-03-25T08:12:02;7.31;81.58
216;HTU21D;70668;48.81286795;9.14184224;2024-03-25T08:14:28;7.55;80.97
216;HTU21D;70668;48.81286795;9.14184224;2024-03-25T08:16:54;7.30;79.60
216;HTU21D;70668;48.81286795;9.14184224;2024-03-25T08:19:20;7.35;80.17
216;HTU21D;70668;48.81286795;9.14184224;2024-03-25T08:21:46;7.32;82.07
216;HTU21D;70668;48.81286795;9.14184224;2024-03-25T08:24:14;7.67;78.47
216;HTU21D;70668;48.81286795;9.14184224;2024-03-25T08:26:42;8.02;79.43
216;HTU21D;70668;48.81286795;9.14184224;2024-03-25T08:29:08;7.74;73.48
216;HTU21D;70668;48.81286795;9.14184224;2024-03-25T08:31:34;7.86;76.18
216;HTU21D;70668;48.81286795;9.14184224;2024-03-25T08:34:00;8.23;76.05
216;HTU21D;70668;48.81286795;9.14184224;2024-03-25T08:36:26;8.11;74.82
216;HTU21D;70668;48.81286795;9.14184224;2024-03-25T08:38:52;7.91;70.99
216;HTU21D;70668;48.81286795;9.14184224;2024-03-25T08:41:18;7.90;74.12
216;HTU21D;70668;48.81286795;9.14184224;2024-03-25T08:43:47;7.79;70.10
216;HTU21D;70668;48.81286795;9.14184224;2024-03-25T08:46:13;8.26;71.27
216;HTU21D;70668;48.81286795;9.14184224;2024-03-25T08:48:39;8.22;74.98
216;HTU21D;70668;48.81286795;9.14184224;2024-03-25T08:51:05;8.44;73.76
216;HTU21D;70668;48.81286795;9.14184224;2024-03-25T08:53:30;8.59;75.08
216;HTU21D;70668;48.81286795;9.14184224;2024-03-25T08:55:56;8.04;66.72
216;HTU21D;70668;48.81286795;9.14184224;2024-03-25T08:58:22;8.41;71.52
216;HTU21D;70668;48.81286795;9.14184224;2024-03-25T09:00:51;8.75;68.39
216;HTU21D;70668;48.81286795;9.14184224;2024-03-25T09:03:17;8.60;64.09
216;HTU21D;70668;48.81286795;9.14184224;2024-03-25T09:05:43;8.29;60.51
216;HTU21D;70668;48.81286795;9.14184224;2024-03-25T09:08:09;8.09;59.24
216;HTU21D;70668;48.81286795;9.14184224;2024-03-25T09:10:36;8.05;60.84
216;HTU21D;70668;48.81286795;9.14184224;2024-03-25T09:13:22;7.88;62.56
216;HTU21D;70668;48.81286795;9.14184224;2024-03-25T09:15:51;7.90;64.05
216;HTU21D;70668;48.81286795;9.14184224;2024-03-25T09:18:19;7.90;63.50
216;HTU21D;70668;48.81286795;9.14184224;2024-03-25T09:20:45;7.79;59.87
216;HTU21D;70668;48.81286795;9.14184224;2024-03-25T09:23:11;7.88;63.02
216;HTU21D;70668;48.81286795;9.14184224;2024-03-25T09:25:37;8.04;60.99
216;HTU21D;70668;48.81286795;9.14184224;2024-03-25T09:28:04;8.09;57.79
216;HTU21D;70668;48.81286795;9.14184224;2024-03-25T09:30:30;8.16;60.89
216;HTU21D;70668;48.81286795;9.14184224;2024-03-25T09:32:58;8.29;62.40
216;HTU21D;70668;48.81286795;9.14184224;2024-03-25T09:35:24;8.14;57.13
216;HTU21D;70668;48.81286795;9.14184224;2024-03-25T09:37:50;8.24;61.52
216;HTU21D;70668;48.81286795;9.14184224;2024-03-25T09:40:16;8.72;59.51
216;HTU21D;70668;48.81286795;9.14184224;2024-03-25T09:42:47;8.73;59.72
216;HTU21D;70668;48.81286795;9.14184224;2024-03-25T09:45:15;8.47;56.66
216;HTU21D;70668;48.81286795;9.14184224;2024-03-25T09:47:45;8.48;57.19
216;HTU21D;70668;48.81286795;9.14184224;2024-03-25T09:50:15;8.55;58.86
216;HTU21D;70668;48.81286795;9.14184224;2024-03-25T09:52:42;8.82;54.20
216;HTU21D;70668;48.81286795;9.14184224;2024-03-25T09:55:08;9.00;54.63
216;HTU21D;70668;48.81286795;9.14184224;2024-03-25T09:57:34;9.08;55.12
216;HTU21D;70668;48.81286795;9.14184224;2024-03-25T10:00:01;9.15;56.13
216;HTU21D;70668;48.81286795;9.14184224;2024-03-25T10:02:39;9.15;54.12
216;HTU21D;70668;48.81286795;9.14184224;2024-03-25T10:05:06;8.85;55.49
216;HTU21D;70668;48.81286795;9.14184224;2024-03-25T10:07:35;9.15;50.06
216;HTU21D;70668;48.81286795;9.14184224;2024-03-25T10:10:03;8.95;52.21
216;HTU21D;70668;48.81286795;9.14184224;2024-03-25T10:12:30;9.27;56.26
216;HTU21D;70668;48.81286795;9.14184224;2024-03-25T10:14:55;9.35;52.99
216;HTU21D;70668;48.81286795;9.14184224;2024-03-25T10:17:22;9.86;50.66
216;HTU21D;70668;48.81286795;9.14184224;2024-03-25T10:19:48;9.46;48.98
216;HTU21D;70668;48.81286795;9.14184224;2024-03-25T10:22:13;9.25;53.48
216;HTU21D;70668;48.81286795;9.14184224;2024-03-25T10:24:44;9.06;49.63
216;HTU21D;70668;48.81286795;9.14184224;2024-03-25T10:27:16;9.17;50.47
216;HTU21D;70668;48.81286795;9.14184224;2024-03-25T10:29:42;9.24;51.13
216;HTU21D;70668;48.81286795;9.14184224;2024-03-25T10:32:08;9.26;48.53
216;HTU21D;70668;48.81286795;9.14184224;2024-03-25T10:34:34;9.40;53.52
216;HTU21D;70668;48.81286795;9.14184224;2024-03-25T10:37:01;9.35;51.93
216;HTU21D;70668;48.81286795;9.14184224;2024-03-25T10:39:31;9.46;52.13
216;HTU21D;70668;48.81286795;9.14184224;2024-03-25T10:42:01;9.86;58.65
216;HTU21D;70668;48.81286795;9.14184224;2024-03-25T10:44:29;10.03;51.11
216;HTU21D;70668;48.81286795;9.14184224;2024-03-25T10:47:00;9.90;53.66
216;HTU21D;70668;48.81286795;9.14184224;2024-03-25T10:49:32;9.36;52.21
216;HTU21D;70668;48.81286795;9.14184224;2024-03-25T10:52:00;9.48;54.18
216;HTU21D;70668;48.81286795;9.14184224;2024-03-25T10:54:29;9.59;50.72
216;HTU21D;70668;48.81286795;9.14184224;2024-03-25T10:57:00;9.40;48.56
216;HTU21D;70668;48.81286795;9.14184224;2024-03-25T10:59:30;9.25;50.05
216;HTU21D;70668;48.81286795;9.14184224;2024-03-25T11:01:56;9.61;48.23
216;HTU21D;70668;48.81286795;9.14184224;2024-03-25T11:04:23;9.68;49.15
216;HTU21D;70668;48.81286795;9.14184224;2024-03-25T11:06:50;10.08;52.85
216;HTU21D;70668;48.81286795;9.14184224;2024-03-25T11:09:23;10.10;52.31
216;HTU21D;70668;48.81286795;9.14184224;2024-03-25T11:11:52;10.15;54.29
216;HTU21D;70668;48.81286795;9.14184224;2024-03-25T11:14:25;9.97;53.17
216;HTU21D;70668;48.81286795;9.14184224;2024-03-25T11:16:51;10.03;50.38
216;HTU21D;70668;48.81286795;9.14184224;2024-03-25T11:19:18;9.99;51.41
216;HTU21D;70668;48.81286795;9.14184224;2024-03-25T11:21:44;9.99;49.35
216;HTU21D;70668;48.81286795;9.14184224;2024-03-25T11:24:10;10.03;49.07
216;HTU21D;70668;48.81286795;9.14184224;2024-03-25T11:26:41;9.67;48.53
216;HTU21D;70668;48.81286795;9.14184224;2024-03-25T11:29:07;9.68;48.44
216;HTU21D;70668;48.81286795;9.14184224;2024-03-25T11:31:38;10.29;48.90
216;HTU21D;70668;48.81286795;9.14184224;2024-03-25T11:34:05;10.45;49.70
216;HTU21D;70668;48.81286795;9.14184224;2024-03-25T11:36:31;10.92;47.21
216;HTU21D;70668;48.81286795;9.14184224;2024-03-25T11:38:58;10.98;47.54
216;HTU21D;70668;48.81286795;9.14184224;2024-03-25T11:41:24;10.72;45.35
216;HTU21D;70668;48.81286795;9.14184224;2024-03-25T11:43:50;10.72;45.02
216;HTU21D;70668;48.81286795;9.14184224;2024-03-25T11:46:19;11.01;46.53
216;HTU21D;70668;48.81286795;9.14184224;2024-03-25T11:48:48;10.86;49.21
216;HTU21D;70668;48.81286795;9.14184224;2024-03-25T11:51:16;11.30;45.81
216;HTU21D;70668;48.81286795;9.14184224;2024-03-25T11:53:42;11.57;44.02
216;HTU21D;70668;48.81286795;9.14184224;2024-03-25T11:56:08;11.07;44.25
216;HTU21D;70668;48.81286795;9.14184224;2024-03-25T11:58:34;12.06;47.64
216;HTU21D;70668;48.81286795;9.14184224;2024-03-25T12:01:01;11.93;44.15
216;HTU21D;70668;48.81286795;9.14184224;2024-03-25T12:03:27;11.89;43.42
216;HTU21D;70668;48.81286795;9.14184224;2024-03-25T12:05:55;12.26;42.23
216;HTU21D;70668;48.81286795;9.14184224;2024-03-25T12:08:22;11.73;41.84
216;HTU21D;70668;48.81286795;9.14184224;2024-03-25T12:10:49;12.06;40.52
216;HTU21D;70668;48.81286795;9.14184224;2024-03-25T12:13:30;11.67;44.02
216;HTU21D;70668;48.81286795;9.14184224;2024-03-25T12:15:56;10.65;44.96
216;HTU21D;70668;48.81286795;9.14184224;2024-03-25T12:18:22;11.60;44.41
216;HTU21D;70668;48.81286795;9.14184224;2024-03-25T12:20:48;11.44;41.68
216;HTU21D;70668;48.81286795;9.14184224;2024-03-25T12:23:17;12.28;42.31
216;HTU21D;70668;48.81286795;9.14184224;2024-03-25T12:25:48;12.42;41.15
216;HTU21D;70668;48.81286795;9.14184224;2024-03-25T12:28:14;12.66;40.49
216;HTU21D;70668;48.81286795;9.14184224;2024-03-25T12:30:49;13.14;40.20
216;HTU21D;70668;48.81286795;9.14184224;2024-03-25T12:33:15;12.95;37.96
216;HTU21D;70668;48.81286795;9.14184224;2024-03-25T12:35:42;13.34;39.62
216;HTU21D;70668;48.81286795;9.14184224;2024-03-25T12:38:10;12.45;38.18
216;HTU21D;70668;48.81286795;9.14184224;2024-03-25T12:40:49;12.59;38.48
216;HTU21D;70668;48.81286795;9.14184224;2024-03-25T12:43:15;13.32;38.66
216;HTU21D;70668;48.81286795;9.14184224;2024-03-25T12:45:42;13.23;37.25
216;HTU21D;70668;48.81286795;9.14184224;2024-03-25T12:48:08;12.63;39.03
216;HTU21D;70668;48.81286795;9.14184224;2024-03-25T12:50:34;13.82;37.06
216;HTU21D;70668;48.81286795;9.14184224;2024-03-25T12:53:00;13.55;36.44
216;HTU21D;70668;48.81286795;9.14184224;2024-03-25T12:55:26;13.30;36.81
216;HTU21D;70668;48.81286795;9.14184224;2024-03-25T12:57:55;12.70;37.14
216;HTU21D;70668;48.81286795;9.14184224;2024-03-25T13:00:21;13.23;35.59
216;HTU21D;70668;48.81286795;9.14184224;2024-03-25T13:02:48;14.70;35.77
216;HTU21D;70668;48.81286795;9.14184224;2024-03-25T13:05:14;14.81;34.82
216;HTU21D;70668;48.81286795;9.14184224;2024-03-25T13:07:40;13.46;36.34
216;HTU21D;70668;48.81286795;9.14184224;2024-03-25T13:10:07;13.40;35.60
216;HTU21D;70668;48.81286795;9.14184224;2024-03-25T13:12:33;13.76;35.64
216;HTU21D;70668;48.81286795;9.14184224;2024-03-25T13:15:01;13.94;37.97
216;HTU21D;70668;48.81286795;9.14184224;2024-03-25T13:17:28;13.73;35.50
216;HTU21D;70668;48.81286795;9.14184224;2024-03-25T13:19:54;14.04;33.82
216;HTU21D;70668;48.81286795;9.14184224;2024-03-25T13:22:20;13.98;35.23
216;HTU21D;70668;48.81286795;9.14184224;2024-03-25T13:24:46;13.85;33.25
216;HTU21D;70668;48.81286795;9.14184224;2024-03-25T13:27:12;13.82;33.57
216;HTU21D;70668;48.81286795;9.14184224;2024-03-25T13:29:38;13.96;32.80
216;HTU21D;70668;48.81286795;9.14184224;2024-03-25T13:32:07;13.40;33.96
216;HTU21D;70668;48.81286795;9.14184224;2024-03-25T13:34:33;13.99;35.90
216;HTU21D;70668;48.81286795;9.14184224;2024-03-25T13:36:59;13.74;36.15